Wetterdaten: Dienstag, 16.04.2013
Datum Zeit Temp. Auen Feucht Auen Luftdruck Regen Richtung Richtung Windben
16.04.2013 00:00 8,1 C 89 % 1020,5 hPa 0,0 mm O 79 0,0 km/h (0 Bft)
16.04.2013 00:05 7,9 C 89 % 1020,5 hPa 0,0 mm O 79 0,0 km/h (0 Bft)
16.04.2013 00:10 7,9 C 90 % 1020,5 hPa 0,0 mm O 79 0,0 km/h (0 Bft)
16.04.2013 00:15 7,8 C 90 % 1020,5 hPa 0,0 mm O 79 0,0 km/h (0 Bft)
16.04.2013 00:20 7,7 C 90 % 1020,5 hPa 0,0 mm N 0 0,0 km/h (0 Bft)
16.04.2013 00:25 7,7 C 90 % 1020,6 hPa 0,0 mm N 0 0,0 km/h (0 Bft)
16.04.2013 00:30 7,8 C 90 % 1020,5 hPa 0,0 mm O 79 1,6 km/h (1 Bft)
16.04.2013 00:35 7,9 C 90 % 1020,4 hPa 0,0 mm O 79 1,6 km/h (1 Bft)
16.04.2013 00:40 7,9 C 90 % 1020,4 hPa 0,0 mm O 79 1,6 km/h (1 Bft)
16.04.2013 00:45 8,1 C 91 % 1020,4 hPa 0,0 mm O 79 1,6 km/h (1 Bft)
16.04.2013 00:50 7,8 C 90 % 1020,5 hPa 0,0 mm O 79 0,0 km/h (0 Bft)
16.04.2013 00:55 7,6 C 90 % 1020,5 hPa 0,0 mm O 79 0,0 km/h (0 Bft)
16.04.2013 01:00 7,5 C 90 % 1020,4 hPa 0,0 mm O 79 0,0 km/h (0 Bft)
16.04.2013 01:05 7,6 C 91 % 1020,4 hPa 0,0 mm O 79 0,0 km/h (0 Bft)
16.04.2013 01:10 7,6 C 91 % 1020,4 hPa 0,0 mm O 79 0,0 km/h (0 Bft)
16.04.2013 01:15 7,6 C 91 % 1020,3 hPa 0,0 mm O 79 0,0 km/h (0 Bft)
16.04.2013 01:20 7,4 C 91 % 1020,4 hPa 0,0 mm O 79 0,0 km/h (0 Bft)
16.04.2013 01:25 7,4 C 91 % 1020,2 hPa 0,0 mm O 79 0,0 km/h (0 Bft)
16.04.2013 01:30 7,3 C 91 % 1020,2 hPa 0,0 mm O 79 0,0 km/h (0 Bft)
16.04.2013 01:35 7,2 C 91 % 1020,1 hPa 0,0 mm O 79 0,0 km/h (0 Bft)
16.04.2013 01:40 7,1 C 91 % 1020,2 hPa 0,0 mm O 79 0,0 km/h (0 Bft)
16.04.2013 01:45 7,1 C 91 % 1020,1 hPa 0,0 mm O 79 0,0 km/h (0 Bft)
16.04.2013 01:50 7,1 C 91 % 1020,1 hPa 0,0 mm O 79 1,6 km/h (1 Bft)
16.04.2013 01:55 7,1 C 91 % 1020,1 hPa 0,0 mm O 79 0,0 km/h (0 Bft)
16.04.2013 02:00 6,9 C 91 % 1020,0 hPa 0,0 mm O 79 0,0 km/h (0 Bft)
16.04.2013 02:05 6,7 C 91 % 1020,0 hPa 0,0 mm O 79 0,0 km/h (0 Bft)
16.04.2013 02:10 6,2 C 91 % 1020,0 hPa 0,0 mm O 79 0,0 km/h (0 Bft)
16.04.2013 02:15 6,2 C 92 % 1020,0 hPa 0,0 mm O 79 0,0 km/h (0 Bft)
16.04.2013 02:20 6,3 C 92 % 1020,0 hPa 0,0 mm O 79 0,0 km/h (0 Bft)
16.04.2013 02:25 6,2 C 92 % 1019,9 hPa 0,0 mm O 79 0,0 km/h (0 Bft)
16.04.2013 02:30 6,3 C 92 % 1019,9 hPa 0,0 mm O 79 0,0 km/h (0 Bft)
16.04.2013 02:35 6,4 C 92 % 1019,8 hPa 0,0 mm O 79 0,0 km/h (0 Bft)
16.04.2013 02:40 6,2 C 92 % 1019,9 hPa 0,0 mm O 79 1,6 km/h (1 Bft)
16.04.2013 02:45 6,1 C 92 % 1019,9 hPa 0,0 mm O 79 1,6 km/h (1 Bft)
16.04.2013 02:50 5,7 C 91 % 1019,9 hPa 0,0 mm O 79 3,2 km/h (1 Bft)
16.04.2013 02:55 5,9 C 93 % 1019,8 hPa 0,0 mm O 79 3,2 km/h (1 Bft)
16.04.2013 03:00 6,2 C 93 % 1019,8 hPa 0,0 mm O 79 0,0 km/h (0 Bft)
16.04.2013 03:05 6,3 C 93 % 1019,8 hPa 0,0 mm O 79 0,0 km/h (0 Bft)
16.04.2013 03:10 6,4 C 93 % 1019,7 hPa 0,0 mm O 79 3,2 km/h (1 Bft)
16.04.2013 03:15 6,4 C 93 % 1019,7 hPa 0,0 mm O 79 0,0 km/h (0 Bft)
16.04.2013 03:20 6,1 C 92 % 1019,8 hPa 0,0 mm O 79 0,0 km/h (0 Bft)
16.04.2013 03:25 5,8 C 92 % 1019,8 hPa 0,0 mm O 79 0,0 km/h (0 Bft)
16.04.2013 03:30 5,7 C 92 % 1019,7 hPa 0,0 mm O 79 0,0 km/h (0 Bft)
16.04.2013 03:35 5,8 C 93 % 1019,7 hPa 0,0 mm O 79 0,0 km/h (0 Bft)
16.04.2013 03:40 5,8 C 93 % 1019,7 hPa 0,0 mm O 79 0,0 km/h (0 Bft)
16.04.2013 03:45 5,6 C 92 % 1019,7 hPa 0,0 mm O 79 1,6 km/h (1 Bft)
16.04.2013 03:50 5,7 C 93 % 1019,7 hPa 0,0 mm O 79 0,0 km/h (0 Bft)
16.04.2013 03:55 5,7 C 93 % 1019,7 hPa 0,0 mm O 79 1,6 km/h (1 Bft)
16.04.2013 04:00 5,6 C 92 % 1019,7 hPa 0,0 mm O 79 1,6 km/h (1 Bft)
16.04.2013 04:05 5,6 C 93 % 1019,6 hPa 0,0 mm O 79 3,2 km/h (1 Bft)
16.04.2013 04:10 5,7 C 93 % 1019,6 hPa 0,0 mm O 79 0,0 km/h (0 Bft)
16.04.2013 04:15 5,6 C 93 % 1019,7 hPa 0,0 mm O 79 1,6 km/h (1 Bft)
16.04.2013 04:20 5,6 C 93 % 1019,6 hPa 0,0 mm O 79 1,6 km/h (1 Bft)
16.04.2013 04:25 5,6 C 93 % 1019,6 hPa 0,0 mm O 79 0,0 km/h (0 Bft)
16.04.2013 04:30 5,6 C 93 % 1019,7 hPa 0,0 mm O 79 0,0 km/h (0 Bft)
16.04.2013 04:35 5,4 C 93 % 1019,7 hPa 0,0 mm O 79 1,6 km/h (1 Bft)
16.04.2013 04:40 5,3 C 93 % 1019,7 hPa 0,0 mm O 79 0,0 km/h (0 Bft)
16.04.2013 04:45 5,3 C 93 % 1019,7 hPa 0,0 mm O 79 0,0 km/h (0 Bft)
16.04.2013 04:50 5,3 C 93 % 1019,7 hPa 0,0 mm O 79 1,6 km/h (1 Bft)
16.04.2013 04:55 5,4 C 93 % 1019,7 hPa 0,0 mm O 79 3,2 km/h (1 Bft)
16.04.2013 05:00 5,2 C 93 % 1019,7 hPa 0,0 mm O 79 0,0 km/h (0 Bft)
16.04.2013 05:05 5,2 C 93 % 1019,7 hPa 0,0 mm O 79 1,6 km/h (1 Bft)
16.04.2013 05:10 5,3 C 94 % 1019,7 hPa 0,0 mm O 79 0,0 km/h (0 Bft)
16.04.2013 05:15 5,1 C 93 % 1019,7 hPa 0,0 mm O 79 0,0 km/h (0 Bft)
16.04.2013 05:20 5,1 C 93 % 1019,7 hPa 0,0 mm O 79 0,0 km/h (0 Bft)
16.04.2013 05:25 5,1 C 93 % 1019,8 hPa 0,0 mm O 79 0,0 km/h (0 Bft)
16.04.2013 05:30 4,9 C 93 % 1019,8 hPa 0,0 mm O 79 0,0 km/h (0 Bft)
16.04.2013 05:35 5,1 C 94 % 1019,8 hPa 0,0 mm O 79 0,0 km/h (0 Bft)
16.04.2013 05:40 4,9 C 93 % 1019,8 hPa 0,0 mm O 79 1,6 km/h (1 Bft)
16.04.2013 05:45 4,9 C 93 % 1019,8 hPa 0,0 mm O 79 0,0 km/h (0 Bft)
16.04.2013 05:50 4,8 C 93 % 1019,9 hPa 0,0 mm O 79 0,0 km/h (0 Bft)
16.04.2013 05:55 4,8 C 93 % 1019,9 hPa 0,0 mm O 79 0,0 km/h (0 Bft)
16.04.2013 06:00 4,8 C 94 % 1019,9 hPa 0,0 mm O 79 0,0 km/h (0 Bft)
16.04.2013 06:05 4,8 C 94 % 1020,0 hPa 0,0 mm O 79 0,0 km/h (0 Bft)
16.04.2013 06:10 4,9 C 94 % 1019,9 hPa 0,0 mm O 79 0,0 km/h (0 Bft)
16.04.2013 06:15 4,9 C 94 % 1020,0 hPa 0,0 mm O 79 1,6 km/h (1 Bft)
16.04.2013 06:20 4,8 C 93 % 1020,0 hPa 0,0 mm O 79 0,0 km/h (0 Bft)
16.04.2013 06:25 4,9 C 93 % 1020,1 hPa 0,0 mm O 79 0,0 km/h (0 Bft)
16.04.2013 06:30 4,8 C 93 % 1020,1 hPa 0,0 mm O 79 0,0 km/h (0 Bft)
16.04.2013 06:35 4,8 C 93 % 1020,1 hPa 0,0 mm O 79 0,0 km/h (0 Bft)
16.04.2013 06:40 4,9 C 93 % 1020,0 hPa 0,0 mm O 79 0,0 km/h (0 Bft)
16.04.2013 06:45 5,1 C 94 % 1020,1 hPa 0,0 mm O 79 1,6 km/h (1 Bft)
16.04.2013 06:50 5,1 C 94 % 1020,1 hPa 0,0 mm O 79 0,0 km/h (0 Bft)
16.04.2013 06:55 5,4 C 94 % 1020,2 hPa 0,0 mm O 79 1,6 km/h (1 Bft)
16.04.2013 07:00 5,8 C 94 % 1020,3 hPa 0,0 mm O 79 0,0 km/h (0 Bft)
16.04.2013 07:05 5,9 C 93 % 1020,2 hPa 0,0 mm O 79 0,0 km/h (0 Bft)
16.04.2013 07:10 6,3 C 93 % 1020,2 hPa 0,0 mm O 79 0,0 km/h (0 Bft)
16.04.2013 07:15 6,7 C 93 % 1020,2 hPa 0,0 mm O 79 0,0 km/h (0 Bft)
16.04.2013 07:20 6,9 C 93 % 1020,3 hPa 0,0 mm O 79 0,0 km/h (0 Bft)
16.04.2013 07:25 7,3 C 93 % 1020,3 hPa 0,0 mm N-NO 32 0,0 km/h (0 Bft)
16.04.2013 07:30 7,9 C 93 % 1020,4 hPa 0,0 mm N-NO 30 1,6 km/h (1 Bft)
16.04.2013 07:35 8,7 C 92 % 1020,4 hPa 0,0 mm N-NO 28 1,6 km/h (1 Bft)
16.04.2013 07:40 9,1 C 90 % 1020,4 hPa 0,0 mm N-NO 28 0,0 km/h (0 Bft)
16.04.2013 07:45 9,2 C 90 % 1020,4 hPa 0,0 mm N-NO 28 0,0 km/h (0 Bft)
16.04.2013 07:50 9,6 C 91 % 1020,4 hPa 0,0 mm N-NO 28 0,0 km/h (0 Bft)
16.04.2013 07:55 10,4 C 89 % 1020,4 hPa 0,0 mm N-NO 28 0,0 km/h (0 Bft)
16.04.2013 08:00 10,5 C 87 % 1020,4 hPa 0,0 mm N-NO 28 0,0 km/h (0 Bft)
16.04.2013 08:05 10,8 C 86 % 1020,4 hPa 0,0 mm N-NO 28 0,0 km/h (0 Bft)
16.04.2013 08:10 11,2 C 85 % 1020,5 hPa 0,0 mm N-NO 28 0,0 km/h (0 Bft)
16.04.2013 08:15 11,2 C 85 % 1020,4 hPa 0,0 mm N-NO 28 0,0 km/h (0 Bft)
16.04.2013 08:20 11,4 C 85 % 1020,4 hPa 0,0 mm N-NO 28 1,6 km/h (1 Bft)
16.04.2013 08:25 11,4 C 82 % 1020,5 hPa 0,0 mm N-NO 28 1,6 km/h (1 Bft)
16.04.2013 08:30 11,8 C 83 % 1020,4 hPa 0,0 mm O-SO 119 4,8 km/h (1 Bft)
16.04.2013 08:35 11,9 C 79 % 1020,3 hPa 0,0 mm O 80 3,2 km/h (1 Bft)
16.04.2013 08:40 12,1 C 81 % 1020,4 hPa 0,0 mm O 79 4,8 km/h (1 Bft)
16.04.2013 08:45 12,2 C 81 % 1020,3 hPa 0,0 mm O-SO 112 4,8 km/h (1 Bft)
16.04.2013 08:50 12,3 C 80 % 1020,3 hPa 0,0 mm O-SO 104 4,8 km/h (1 Bft)
16.04.2013 08:55 12,4 C 81 % 1020,3 hPa 0,0 mm O 82 4,8 km/h (1 Bft)
16.04.2013 09:00 12,6 C 81 % 1020,3 hPa 0,0 mm O 90 3,2 km/h (1 Bft)
16.04.2013 09:05 12,8 C 81 % 1020,4 hPa 0,0 mm O-SO 110 4,8 km/h (1 Bft)
16.04.2013 09:10 13,1 C 80 % 1020,4 hPa 0,0 mm O-NO 63 4,8 km/h (1 Bft)
16.04.2013 09:15 13,3 C 78 % 1020,4 hPa 0,0 mm SO 128 4,8 km/h (1 Bft)
16.04.2013 09:20 13,3 C 81 % 1020,4 hPa 0,0 mm O 79 3,2 km/h (1 Bft)
16.04.2013 09:25 13,2 C 80 % 1020,5 hPa 0,0 mm O-SO 105 3,2 km/h (1 Bft)
16.04.2013 09:30 13,6 C 80 % 1020,5 hPa 0,0 mm SO 132 4,8 km/h (1 Bft)
16.04.2013 09:35 13,5 C 78 % 1020,6 hPa 0,0 mm O-SO 119 4,8 km/h (1 Bft)
16.04.2013 09:40 13,8 C 80 % 1020,5 hPa 0,0 mm SO 146 4,8 km/h (1 Bft)
16.04.2013 09:45 13,8 C 77 % 1020,5 hPa 0,0 mm SO 133 3,2 km/h (1 Bft)
16.04.2013 09:50 13,7 C 77 % 1020,6 hPa 0,0 mm SO 132 3,2 km/h (1 Bft)
16.04.2013 09:55 13,8 C 78 % 1020,6 hPa 0,0 mm O 96 3,2 km/h (1 Bft)
16.04.2013 10:00 14,3 C 77 % 1020,5 hPa 0,0 mm NO 52 4,8 km/h (1 Bft)
16.04.2013 10:05 14,5 C 75 % 1020,5 hPa 0,0 mm O-NO 77 3,2 km/h (1 Bft)
16.04.2013 10:10 14,7 C 75 % 1020,6 hPa 0,0 mm O-NO 77 1,6 km/h (1 Bft)
16.04.2013 10:15 15,1 C 75 % 1020,6 hPa 0,0 mm O-NO 77 1,6 km/h (1 Bft)
16.04.2013 10:20 15,3 C 74 % 1020,6 hPa 0,0 mm O-NO 77 1,6 km/h (1 Bft)
16.04.2013 10:25 15,4 C 73 % 1020,7 hPa 0,0 mm O-NO 77 1,6 km/h (1 Bft)
16.04.2013 10:30 15,8 C 73 % 1020,7 hPa 0,0 mm O-NO 77 1,6 km/h (1 Bft)
16.04.2013 10:35 15,9 C 74 % 1020,7 hPa 0,0 mm O 94 3,2 km/h (1 Bft)
16.04.2013 10:40 16,1 C 72 % 1020,7 hPa 0,0 mm O 94 1,6 km/h (1 Bft)
16.04.2013 10:45 16,3 C 75 % 1020,8 hPa 0,0 mm S-SO 151 3,2 km/h (1 Bft)
16.04.2013 10:50 16,7 C 72 % 1020,8 hPa 0,0 mm S-SO 164 3,2 km/h (1 Bft)
16.04.2013 10:55 17,9 C 69 % 1020,8 hPa 0,0 mm W 281 4,8 km/h (1 Bft)
16.04.2013 11:00 19,2 C 63 % 1020,7 hPa 0,0 mm W 265 6,4 km/h (2 Bft)
16.04.2013 11:05 19,6 C 61 % 1020,8 hPa 0,0 mm W 262 6,4 km/h (2 Bft)
16.04.2013 11:10 19,6 C 56 % 1020,7 hPa 0,0 mm W 267 9,7 km/h (2 Bft)
16.04.2013 11:15 19,6 C 57 % 1020,8 hPa 0,0 mm W-SW 237 6,4 km/h (2 Bft)
16.04.2013 11:20 19,6 C 56 % 1020,8 hPa 0,0 mm W 267 9,7 km/h (2 Bft)
16.04.2013 11:25 19,5 C 54 % 1020,9 hPa 0,0 mm W 266 8,0 km/h (2 Bft)
16.04.2013 11:30 19,6 C 52 % 1021,0 hPa 0,0 mm W 271 11,3 km/h (2 Bft)
16.04.2013 11:35 19,5 C 52 % 1020,9 hPa 0,0 mm W-SW 258 9,7 km/h (2 Bft)
16.04.2013 11:40 19,8 C 51 % 1020,9 hPa 0,0 mm W 270 11,3 km/h (2 Bft)
16.04.2013 11:45 20,1 C 52 % 1020,9 hPa 0,0 mm W 265 14,5 km/h (3 Bft)
16.04.2013 11:50 20,6 C 50 % 1020,9 hPa 0,0 mm W 267 12,9 km/h (3 Bft)
16.04.2013 11:55 20,7 C 50 % 1020,8 hPa 0,0 mm W 275 12,9 km/h (3 Bft)
16.04.2013 12:00 21,2 C 49 % 1020,8 hPa 0,0 mm W-NW 282 9,7 km/h (2 Bft)
16.04.2013 12:05 20,8 C 48 % 1020,7 hPa 0,0 mm W-SW 256 12,9 km/h (3 Bft)
16.04.2013 12:10 20,3 C 48 % 1020,7 hPa 0,0 mm W 269 12,9 km/h (3 Bft)
16.04.2013 12:15 20,4 C 50 % 1020,7 hPa 0,0 mm W 261 11,3 km/h (2 Bft)
16.04.2013 12:20 21,2 C 50 % 1020,6 hPa 0,0 mm W 266 11,3 km/h (2 Bft)
16.04.2013 12:25 21,8 C 48 % 1020,6 hPa 0,0 mm W-NW 297 16,1 km/h (3 Bft)
16.04.2013 12:30 22,1 C 48 % 1020,6 hPa 0,0 mm W 271 16,1 km/h (3 Bft)
16.04.2013 12:35 22,1 C 46 % 1020,6 hPa 0,0 mm W 277 16,1 km/h (3 Bft)
16.04.2013 12:40 21,9 C 46 % 1020,5 hPa 0,0 mm W 281 19,3 km/h (3 Bft)
16.04.2013 12:45 21,7 C 47 % 1020,4 hPa 0,0 mm W-NW 284 24,1 km/h (4 Bft)
16.04.2013 12:50 21,4 C 47 % 1020,4 hPa 0,0 mm W-SW 255 19,3 km/h (3 Bft)
16.04.2013 12:55 21,7 C 47 % 1020,4 hPa 0,0 mm W-NW 297 20,9 km/h (4 Bft)
16.04.2013 13:00 21,9 C 46 % 1020,4 hPa 0,0 mm W 259 17,7 km/h (3 Bft)
16.04.2013 13:05 22,3 C 46 % 1020,4 hPa 0,0 mm W-NW 282 16,1 km/h (3 Bft)
16.04.2013 13:10 21,7 C 43 % 1020,4 hPa 0,0 mm W 259 17,7 km/h (3 Bft)
16.04.2013 13:15 21,1 C 47 % 1020,4 hPa 0,0 mm W-NW 288 19,3 km/h (3 Bft)
16.04.2013 13:20 20,5 C 47 % 1020,5 hPa 0,0 mm W 259 16,1 km/h (3 Bft)
16.04.2013 13:25 20,4 C 48 % 1020,5 hPa 0,0 mm W 266 17,7 km/h (3 Bft)
16.04.2013 13:30 20,4 C 49 % 1020,5 hPa 0,0 mm W 267 17,7 km/h (3 Bft)
16.04.2013 13:35 20,5 C 48 % 1020,6 hPa 0,0 mm W-SW 257 17,7 km/h (3 Bft)
16.04.2013 13:40 20,4 C 49 % 1020,5 hPa 0,0 mm W 273 16,1 km/h (3 Bft)
16.04.2013 13:45 20,1 C 50 % 1020,5 hPa 0,0 mm W-NW 282 12,9 km/h (3 Bft)
16.04.2013 13:50 20,1 C 50 % 1020,5 hPa 0,0 mm W 277 16,1 km/h (3 Bft)
16.04.2013 13:55 20,0 C 50 % 1020,5 hPa 0,0 mm W 270 14,5 km/h (3 Bft)
16.04.2013 14:00 19,8 C 52 % 1020,5 hPa 0,0 mm W-SW 242 17,7 km/h (3 Bft)
16.04.2013 14:05 19,8 C 51 % 1020,5 hPa 0,0 mm W-SW 248 14,5 km/h (3 Bft)
16.04.2013 14:10 19,9 C 52 % 1020,5 hPa 0,0 mm W-NW 284 14,5 km/h (3 Bft)
16.04.2013 14:15 20,2 C 52 % 1020,6 hPa 0,0 mm W-SW 256 14,5 km/h (3 Bft)
16.04.2013 14:20 20,3 C 50 % 1020,6 hPa 0,0 mm W 260 12,9 km/h (3 Bft)
16.04.2013 14:25 20,2 C 51 % 1020,7 hPa 0,0 mm W-SW 255 14,5 km/h (3 Bft)
16.04.2013 14:30 20,1 C 50 % 1020,6 hPa 0,0 mm W 274 16,1 km/h (3 Bft)
16.04.2013 14:35 20,1 C 51 % 1020,6 hPa 0,0 mm W 265 14,5 km/h (3 Bft)
16.04.2013 14:40 20,1 C 51 % 1020,7 hPa 0,0 mm W 260 16,1 km/h (3 Bft)
16.04.2013 14:45 19,9 C 52 % 1020,6 hPa 0,0 mm W 266 12,9 km/h (3 Bft)
16.04.2013 14:50 19,8 C 52 % 1020,6 hPa 0,0 mm W 263 12,9 km/h (3 Bft)
16.04.2013 14:55 19,8 C 53 % 1020,6 hPa 0,0 mm W-SW 242 6,4 km/h (2 Bft)
16.04.2013 15:00 19,8 C 51 % 1020,5 hPa 0,0 mm W 261 11,3 km/h (2 Bft)
16.04.2013 15:05 19,8 C 51 % 1020,6 hPa 0,0 mm W-SW 244 9,7 km/h (2 Bft)
16.04.2013 15:10 19,9 C 53 % 1020,5 hPa 0,0 mm W-SW 251 9,7 km/h (2 Bft)
16.04.2013 15:15 20,0 C 52 % 1020,5 hPa 0,0 mm W 271 8,0 km/h (2 Bft)
16.04.2013 15:20 19,9 C 52 % 1020,5 hPa 0,0 mm NW 305 8,0 km/h (2 Bft)
16.04.2013 15:25 19,8 C 51 % 1020,5 hPa 0,0 mm W-NW 285 6,4 km/h (2 Bft)
16.04.2013 15:30 19,9 C 52 % 1020,3 hPa 0,0 mm W 273 8,0 km/h (2 Bft)
16.04.2013 15:35 20,0 C 54 % 1020,4 hPa 0,0 mm SW 227 3,2 km/h (1 Bft)
16.04.2013 15:40 19,4 C 55 % 1020,4 hPa 0,0 mm S-SW 211 3,2 km/h (1 Bft)
16.04.2013 15:45 19,7 C 50 % 1020,3 hPa 0,0 mm W 277 3,2 km/h (1 Bft)
16.04.2013 15:50 19,6 C 54 % 1020,3 hPa 0,0 mm W 277 1,6 km/h (1 Bft)
16.04.2013 15:55 19,4 C 51 % 1020,3 hPa 0,0 mm N 355 4,8 km/h (1 Bft)
16.04.2013 16:00 19,8 C 52 % 1020,1 hPa 0,0 mm W-NW 297 3,2 km/h (1 Bft)
16.04.2013 16:05 20,3 C 53 % 1020,1 hPa 0,0 mm W-NW 290 4,8 km/h (1 Bft)
16.04.2013 16:10 20,3 C 48 % 1020,1 hPa 0,0 mm N-NO 26 6,4 km/h (2 Bft)
16.04.2013 16:15 19,9 C 52 % 1020,1 hPa 0,0 mm NO 39 6,4 km/h (2 Bft)
16.04.2013 16:20 20,1 C 51 % 1020,1 hPa 0,0 mm W 264 3,2 km/h (1 Bft)
16.04.2013 16:25 20,1 C 49 % 1020,0 hPa 0,0 mm S-SW 198 3,2 km/h (1 Bft)
16.04.2013 16:30 20,1 C 53 % 1019,9 hPa 0,0 mm W-SW 250 8,0 km/h (2 Bft)
16.04.2013 16:35 20,4 C 49 % 1019,9 hPa 0,0 mm W 261 6,4 km/h (2 Bft)
16.04.2013 16:40 20,3 C 49 % 1019,9 hPa 0,0 mm W 273 9,7 km/h (2 Bft)
16.04.2013 16:45 20,2 C 48 % 1019,9 hPa 0,0 mm W 271 9,7 km/h (2 Bft)
16.04.2013 16:50 20,1 C 49 % 1020,0 hPa 0,0 mm W 273 6,4 km/h (2 Bft)
16.04.2013 16:55 20,0 C 50 % 1020,0 hPa 0,0 mm W 269 6,4 km/h (2 Bft)
16.04.2013 17:00 19,8 C 49 % 1020,0 hPa 0,0 mm W 263 6,4 km/h (2 Bft)
16.04.2013 17:05 19,6 C 52 % 1020,0 hPa 0,0 mm W 273 6,4 km/h (2 Bft)
16.04.2013 17:10 19,4 C 54 % 1020,0 hPa 0,0 mm W-NW 290 6,4 km/h (2 Bft)
16.04.2013 17:15 19,6 C 56 % 1019,9 hPa 0,0 mm W 264 6,4 km/h (2 Bft)
16.04.2013 17:20 19,7 C 54 % 1019,9 hPa 0,0 mm W 269 4,8 km/h (1 Bft)
16.04.2013 17:25 20,1 C 51 % 1019,9 hPa 0,0 mm W 269 3,2 km/h (1 Bft)
16.04.2013 17:30 20,5 C 49 % 1019,9 hPa 0,0 mm W 267 3,2 km/h (1 Bft)
16.04.2013 17:35 20,3 C 50 % 1019,8 hPa 0,0 mm W 266 4,8 km/h (1 Bft)
16.04.2013 17:40 20,0 C 48 % 1020,0 hPa 0,0 mm W 263 6,4 km/h (2 Bft)
16.04.2013 17:45 20,2 C 47 % 1019,9 hPa 0,0 mm W 259 3,2 km/h (1 Bft)
16.04.2013 17:50 19,9 C 50 % 1019,9 hPa 0,0 mm W 272 4,8 km/h (1 Bft)
16.04.2013 17:55 20,1 C 48 % 1020,0 hPa 0,0 mm W 266 8,0 km/h (2 Bft)
16.04.2013 18:00 20,1 C 49 % 1020,0 hPa 0,0 mm W 263 8,0 km/h (2 Bft)
16.04.2013 18:05 19,7 C 51 % 1020,0 hPa 0,0 mm W 271 4,8 km/h (1 Bft)
16.04.2013 18:10 19,4 C 53 % 1020,0 hPa 0,0 mm W 271 3,2 km/h (1 Bft)
16.04.2013 18:15 19,2 C 54 % 1020,1 hPa 0,0 mm W 269 3,2 km/h (1 Bft)
16.04.2013 18:20 18,6 C 61 % 1020,1 hPa 0,0 mm NO 55 4,8 km/h (1 Bft)
16.04.2013 18:25 17,7 C 67 % 1020,0 hPa 0,0 mm NO 56 3,2 km/h (1 Bft)
16.04.2013 18:30 17,4 C 69 % 1020,1 hPa 0,0 mm O 81 3,2 km/h (1 Bft)
16.04.2013 18:35 17,2 C 70 % 1020,1 hPa 0,0 mm O 81 3,2 km/h (1 Bft)
16.04.2013 18:40 17,2 C 69 % 1020,1 hPa 0,0 mm O-SO 114 1,6 km/h (1 Bft)
16.04.2013 18:45 17,2 C 67 % 1020,2 hPa 0,0 mm O-SO 114 0,0 km/h (0 Bft)
16.04.2013 18:50 17,2 C 67 % 1020,3 hPa 0,0 mm O-SO 114 1,6 km/h (1 Bft)
16.04.2013 18:55 17,3 C 67 % 1020,6 hPa 0,0 mm W-SW 255 20,9 km/h (4 Bft)
16.04.2013 19:00 17,4 C 64 % 1020,7 hPa 0,0 mm W 269 17,7 km/h (3 Bft)
16.04.2013 19:05 17,1 C 70 % 1021,1 hPa 0,0 mm W-SW 257 37,0 km/h (5 Bft)
16.04.2013 19:10 16,4 C 72 % 1021,3 hPa 0,0 mm S-SW 196 19,3 km/h (3 Bft)
16.04.2013 19:15 15,8 C 76 % 1021,6 hPa 0,2 mm W 261 20,9 km/h (4 Bft)
16.04.2013 19:20 15,1 C 79 % 1021,7 hPa 0,2 mm W 267 14,5 km/h (3 Bft)
16.04.2013 19:25 14,7 C 83 % 1021,8 hPa 0,2 mm W 268 9,7 km/h (2 Bft)
16.04.2013 19:30 14,4 C 84 % 1021,9 hPa 0,0 mm W 263 11,3 km/h (2 Bft)
16.04.2013 19:35 14,1 C 85 % 1021,7 hPa 0,4 mm W 269 8,0 km/h (2 Bft)
16.04.2013 19:40 13,6 C 86 % 1021,7 hPa 0,2 mm S 182 6,4 km/h (2 Bft)
16.04.2013 19:45 13,4 C 87 % 1021,7 hPa 0,0 mm S 182 3,2 km/h (1 Bft)
16.04.2013 19:50 13,3 C 89 % 1021,8 hPa 0,0 mm W 266 3,2 km/h (1 Bft)
16.04.2013 19:55 13,4 C 90 % 1021,8 hPa 0,0 mm W 268 4,8 km/h (1 Bft)
16.04.2013 20:00 13,3 C 90 % 1021,6 hPa 0,0 mm W 268 0,0 km/h (0 Bft)
16.04.2013 20:05 13,2 C 90 % 1021,5 hPa 0,2 mm NW 307 1,6 km/h (1 Bft)
16.04.2013 20:10 13,1 C 90 % 1021,5 hPa 0,0 mm N 355 4,8 km/h (1 Bft)
16.04.2013 20:15 13,1 C 91 % 1021,5 hPa 0,0 mm N 5 6,4 km/h (2 Bft)
16.04.2013 20:20 13,0 C 91 % 1021,6 hPa 0,0 mm N 360 6,4 km/h (2 Bft)
16.04.2013 20:25 13,0 C 91 % 1021,7 hPa 0,0 mm N 360 1,6 km/h (1 Bft)
16.04.2013 20:30 12,7 C 91 % 1021,8 hPa 0,0 mm O 100 4,8 km/h (1 Bft)
16.04.2013 20:35 12,6 C 91 % 1021,8 hPa 0,0 mm O-SO 109 4,8 km/h (1 Bft)
16.04.2013 20:40 12,5 C 91 % 1021,9 hPa 0,0 mm O-NO 57 4,8 km/h (1 Bft)
16.04.2013 20:45 12,5 C 92 % 1022,0 hPa 0,0 mm NO 51 3,2 km/h (1 Bft)
16.04.2013 20:50 12,6 C 92 % 1021,9 hPa 0,0 mm NO 51 0,0 km/h (0 Bft)
16.04.2013 20:55 12,6 C 92 % 1022,0 hPa 0,0 mm NO 51 1,6 km/h (1 Bft)
16.04.2013 21:00 12,5 C 92 % 1022,0 hPa 0,0 mm NO 51 0,0 km/h (0 Bft)
16.04.2013 21:05 12,5 C 92 % 1022,1 hPa 0,0 mm NO 51 0,0 km/h (0 Bft)
16.04.2013 21:10 12,5 C 92 % 1022,1 hPa 0,0 mm NO 47 3,2 km/h (1 Bft)
16.04.2013 21:15 12,5 C 93 % 1022,1 hPa 0,0 mm SO 132 1,6 km/h (1 Bft)
16.04.2013 21:20 12,4 C 92 % 1022,1 hPa 0,0 mm SW 230 3,2 km/h (1 Bft)
16.04.2013 21:25 12,5 C 93 % 1022,1 hPa 0,0 mm SW 230 1,6 km/h (1 Bft)
16.04.2013 21:30 12,6 C 93 % 1022,1 hPa 0,0 mm SW 234 3,2 km/h (1 Bft)
16.04.2013 21:35 12,5 C 93 % 1022,1 hPa 0,0 mm W-SW 242 4,8 km/h (1 Bft)
16.04.2013 21:40 12,3 C 93 % 1022,2 hPa 0,0 mm W 275 4,8 km/h (1 Bft)
16.04.2013 21:45 12,4 C 93 % 1022,2 hPa 0,0 mm W 278 4,8 km/h (1 Bft)
16.04.2013 21:50 12,4 C 93 % 1022,2 hPa 0,0 mm W 259 6,4 km/h (2 Bft)
16.04.2013 21:55 12,4 C 93 % 1022,2 hPa 0,0 mm W 261 6,4 km/h (2 Bft)
16.04.2013 22:00 12,2 C 92 % 1022,2 hPa 0,0 mm W 261 3,2 km/h (1 Bft)
16.04.2013 22:05 12,1 C 93 % 1022,1 hPa 0,0 mm W 261 0,0 km/h (0 Bft)
16.04.2013 22:10 12,0 C 93 % 1022,2 hPa 0,0 mm W 261 0,0 km/h (0 Bft)
16.04.2013 22:15 11,9 C 93 % 1022,2 hPa 0,0 mm W 261 0,0 km/h (0 Bft)
16.04.2013 22:20 12,0 C 93 % 1022,2 hPa 0,0 mm W 261 0,0 km/h (0 Bft)
16.04.2013 22:25 11,8 C 93 % 1022,2 hPa 0,0 mm W 261 0,0 km/h (0 Bft)
16.04.2013 22:30 11,6 C 93 % 1022,2 hPa 0,0 mm W 261 1,6 km/h (1 Bft)
16.04.2013 22:35 11,7 C 94 % 1022,2 hPa 0,0 mm W 261 1,6 km/h (1 Bft)
16.04.2013 22:40 11,7 C 94 % 1022,3 hPa 0,0 mm W 261 0,0 km/h (0 Bft)
16.04.2013 22:45 11,3 C 93 % 1022,3 hPa 0,0 mm W 261 1,6 km/h (1 Bft)
16.04.2013 22:50 11,0 C 93 % 1022,4 hPa 0,0 mm W 261 0,0 km/h (0 Bft)
16.04.2013 22:55 11,1 C 94 % 1022,4 hPa 0,0 mm W 261 0,0 km/h (0 Bft)
16.04.2013 23:00 11,0 C 94 % 1022,5 hPa 0,0 mm W 261 0,0 km/h (0 Bft)
16.04.2013 23:05 10,9 C 94 % 1022,4 hPa 0,0 mm W 261 0,0 km/h (0 Bft)
16.04.2013 23:10 10,9 C 94 % 1022,4 hPa 0,0 mm W 261 0,0 km/h (0 Bft)
16.04.2013 23:15 10,8 C 94 % 1022,4 hPa 0,0 mm W 261 0,0 km/h (0 Bft)
16.04.2013 23:20 10,9 C 95 % 1022,6 hPa 0,0 mm W 261 1,6 km/h (1 Bft)
16.04.2013 23:25 11,0 C 95 % 1022,8 hPa 0,0 mm W 261 3,2 km/h (1 Bft)
16.04.2013 23:30 11,0 C 95 % 1022,9 hPa 0,0 mm W 279 4,8 km/h (1 Bft)
16.04.2013 23:35 11,1 C 95 % 1023,1 hPa 0,0 mm W 279 3,2 km/h (1 Bft)
16.04.2013 23:40 11,2 C 95 % 1023,2 hPa 0,0 mm W 279 3,2 km/h (1 Bft)
16.04.2013 23:45 11,4 C 95 % 1023,2 hPa 0,0 mm W 265 4,8 km/h (1 Bft)
16.04.2013 23:50 11,4 C 94 % 1023,3 hPa 0,0 mm W 265 3,2 km/h (1 Bft)
16.04.2013 23:55 11,5 C 94 % 1023,4 hPa 0,0 mm W 265 6,4 km/h (2 Bft)
_ Min-Zeit 05:45 13:10 04:05 - - - 00:00
Minimum _ 4,8 C 43 % 1019,6 hPa - - - 0,0 km/h (0 Bft)
_ Max-Zeit 13:10 23:20 23:55 19:35 - - 19:05
Maximum _ 22,4 C 95 % 1023,4 hPa 0,4 mm - - 37,0 km/h
W-SW (5 Bft)
Durchschnitt _ 13,1 C 77 % 1020,6 hPa #1,4 mm O - 4,8 km/h (1 Bft)